Time;durP1;ratioP1;P1;durP2;ratioP2;P2;SDS_P1;SDS_P2;PMS_P1;PMS_P2;Temp;Humidity;BMP_temperature;BMP_pressure;BME280_temperature;BME280_humidity;BME280_pressure;Samples;Min_cycle;Max_cycle;Signal;HPM_P1;HPM_P2
2022/07/05 00:00:04;;;;;;;9.18;8.30;;;;;;;;;;5016409;28;20048;-68
2022/07/05 00:02:38;;;;;;;10.07;8.40;;;;;;;;;;5018707;28;20041;-68
2022/07/05 00:05:04;;;;;;;8.60;7.90;;;;;;;;;;5015933;28;20571;-68
2022/07/05 00:07:29;;;;;;;8.95;8.25;;;;;;;;;;5018360;28;20042;-68
2022/07/05 00:09:57;;;;;;;8.50;7.90;;;;;;;;;;5017653;28;20064;-68
2022/07/05 00:12:27;;;;;;;8.60;8.00;;;;;;;;;;5016382;28;20037;-68
2022/07/05 00:14:53;;;;;;;9.07;7.93;;;;;;;;;;5022599;28;20030;-68
2022/07/05 00:17:19;;;;;;;8.90;8.20;;;;;;;;;;5025669;28;20040;-68
2022/07/05 00:19:45;;;;;;;8.73;8.07;;;;;;;;;;5027755;28;20045;-69
2022/07/05 00:22:10;;;;;;;8.15;7.65;;;;;;;;;;5023889;28;20033;-68
2022/07/05 00:24:36;;;;;;;9.02;8.23;;;;;;;;;;5025588;28;20033;-68
2022/07/05 00:27:02;;;;;;;8.48;7.88;;;;;;;;;;5029162;28;20510;-68
2022/07/05 00:29:28;;;;;;;8.35;7.75;;;;;;;;;;5029622;28;20119;-68
2022/07/05 00:31:54;;;;;;;8.70;8.00;;;;;;;;;;5027151;28;20040;-68
2022/07/05 00:34:20;;;;;;;8.55;7.85;;;;;;;;;;5028508;28;20045;-68
2022/07/05 00:36:45;;;;;;;9.30;8.13;;;;;;;;;;5028941;28;20082;-68
2022/07/05 00:39:11;;;;;;;8.93;8.15;;;;;;;;;;5028392;28;20041;-68
2022/07/05 00:41:37;;;;;;;9.00;8.30;;;;;;;;;;5028537;28;20044;-68
2022/07/05 00:44:06;;;;;;;9.32;8.43;;;;;;;;;;5028676;28;20022;-68
2022/07/05 00:46:32;;;;;;;;;;;;;;;;;;5031158;28;20030;-68
2022/07/05 00:48:59;;;;;;;10.82;8.30;;;;;;;;;;5025754;28;19979;-68
2022/07/05 00:51:26;;;;;;;8.82;8.00;;;;;;;;;;5028458;28;20041;-68
2022/07/05 00:53:52;;;;;;;9.18;8.25;;;;;;;;;;5028309;28;20044;-68
2022/07/05 00:56:23;;;;;;;8.50;7.80;;;;;;;;;;5028745;28;20037;-67
2022/07/05 00:58:48;;;;;;;8.55;7.88;;;;;;;;;;5026174;28;20048;-68
2022/07/05 01:01:16;;;;;;;8.85;8.10;;;;;;;;;;5027840;28;20040;-68
2022/07/05 01:03:42;;;;;;;8.95;8.10;;;;;;;;;;5029282;28;20044;-68
2022/07/05 01:06:10;;;;;;;9.23;8.00;;;;;;;;;;5027894;28;20076;-69
2022/07/05 01:08:38;;;;;;;9.25;8.18;;;;;;;;;;5025501;28;20380;-68
2022/07/05 01:11:05;;;;;;;8.65;7.85;;;;;;;;;;5026254;28;20091;-68
2022/07/05 01:13:30;;;;;;;9.48;8.68;;;;;;;;;;5028593;28;20033;-68
2022/07/05 01:15:56;;;;;;;9.82;9.02;;;;;;;;;;5026807;28;20033;-68
2022/07/05 01:18:22;;;;;;;9.23;8.45;;;;;;;;;;5028989;28;20036;-68
2022/07/05 01:20:49;;;;;;;9.27;8.43;;;;;;;;;;5026124;28;20033;-68
2022/07/05 01:23:16;;;;;;;9.50;8.60;;;;;;;;;;5023810;28;20050;-68
2022/07/05 01:25:42;;;;;;;9.65;8.85;;;;;;;;;;5028406;28;20032;-69
2022/07/05 01:28:08;;;;;;;9.88;8.98;;;;;;;;;;5028421;28;20029;-68
2022/07/05 01:30:35;;;;;;;9.30;8.48;;;;;;;;;;5024812;28;20099;-66
2022/07/05 01:33:02;;;;;;;9.65;8.80;;;;;;;;;;5026520;28;20057;-68
2022/07/05 01:35:27;;;;;;;9.50;8.80;;;;;;;;;;5045185;28;20094;-68
2022/07/05 01:37:53;;;;;;;9.98;8.98;;;;;;;;;;5028596;28;20815;-68
2022/07/05 01:40:19;;;;;;;9.27;8.57;;;;;;;;;;5027351;28;20104;-68
2022/07/05 01:42:46;;;;;;;10.32;8.98;;;;;;;;;;5027027;28;20033;-68
2022/07/05 01:45:12;;;;;;;9.50;8.73;;;;;;;;;;5028760;28;20033;-68
2022/07/05 01:47:45;;;;;;;9.55;8.65;;;;;;;;;;5026063;28;20473;-68
2022/07/05 01:50:15;;;;;;;10.05;9.07;;;;;;;;;;5026823;28;20538;-68
2022/07/05 01:52:42;;;;;;;;;;;;;;;;;;5024217;28;20037;-68
2022/07/05 01:55:07;;;;;;;9.77;8.98;;;;;;;;;;5024640;28;20058;-68
2022/07/05 01:57:33;;;;;;;9.40;8.65;;;;;;;;;;5027206;28;20057;-68
2022/07/05 01:59:58;;;;;;;10.00;9.20;;;;;;;;;;5026301;28;20100;-68
2022/07/05 02:02:24;;;;;;;10.23;9.40;;;;;;;;;;5025737;28;20087;-68
2022/07/05 02:04:50;;;;;;;13.55;9.68;;;;;;;;;;5026484;28;20686;-68
2022/07/05 02:07:16;;;;;;;10.30;9.52;;;;;;;;;;5025292;28;20555;-68
2022/07/05 02:09:43;;;;;;;13.65;12.05;;;;;;;;;;5028056;28;20072;-67
2022/07/05 02:12:09;;;;;;;14.70;13.30;;;;;;;;;;5025450;28;20394;-68
2022/07/05 02:14:35;;;;;;;14.57;13.27;;;;;;;;;;5042076;28;20037;-68
2022/07/05 02:17:05;;;;;;;13.23;12.02;;;;;;;;;;5027103;28;20564;-68
2022/07/05 02:19:37;;;;;;;15.77;14.13;;;;;;;;;;5028496;28;20045;-68
2022/07/05 02:22:05;;;;;;;13.98;12.65;;;;;;;;;;5023758;28;20071;-68
2022/07/05 02:24:32;;;;;;;14.60;13.25;;;;;;;;;;5028703;28;20533;-68
2022/07/05 02:27:12;;;;;;;14.27;12.85;;;;;;;;;;5024680;28;20033;-67
2022/07/05 02:29:39;;;;;;;16.38;13.27;;;;;;;;;;5026031;28;20060;-68
2022/07/05 02:32:05;;;;;;;13.60;12.15;;;;;;;;;;5023880;28;20037;-68
2022/07/05 02:34:31;;;;;;;14.00;12.63;;;;;;;;;;5025040;28;20071;-68
2022/07/05 02:36:57;;;;;;;12.88;11.73;;;;;;;;;;5028700;28;20056;-67
2022/07/05 02:39:22;;;;;;;13.20;11.77;;;;;;;;;;5025529;28;20037;-67
2022/07/05 02:41:51;;;;;;;12.10;10.80;;;;;;;;;;5024441;28;20053;-67
2022/07/05 02:44:16;;;;;;;12.30;11.20;;;;;;;;;;5025901;28;20068;-67
2022/07/05 02:46:43;;;;;;;11.43;10.50;;;;;;;;;;5024231;28;20037;-67
2022/07/05 02:49:08;;;;;;;11.45;10.45;;;;;;;;;;5026147;28;20055;-67
2022/07/05 02:51:35;;;;;;;11.45;10.40;;;;;;;;;;5008521;28;20099;-67
2022/07/05 02:54:04;;;;;;;11.80;10.80;;;;;;;;;;5025410;28;20038;-67
2022/07/05 02:56:33;;;;;;;11.77;10.77;;;;;;;;;;5018759;28;20049;-67
2022/07/05 02:58:59;;;;;;;12.07;10.88;;;;;;;;;;5023830;28;20037;-67
2022/07/05 03:01:26;;;;;;;12.35;11.35;;;;;;;;;;5023455;28;20041;-67
2022/07/05 03:03:52;;;;;;;11.90;10.57;;;;;;;;;;5023612;28;20671;-68
2022/07/05 03:06:19;;;;;;;11.45;10.55;;;;;;;;;;5024878;28;20035;-67
2022/07/05 03:08:45;;;;;;;12.52;11.23;;;;;;;;;;5026126;28;20037;-67
2022/07/05 03:11:12;;;;;;;12.10;11.00;;;;;;;;;;5023690;28;20033;-65
2022/07/05 03:13:37;;;;;;;11.55;10.52;;;;;;;;;;5020932;28;20444;-66
2022/07/05 03:16:03;;;;;;;11.30;10.30;;;;;;;;;;5025403;28;20030;-66
2022/07/05 03:18:29;;;;;;;12.40;11.30;;;;;;;;;;5025401;28;20056;-66
2022/07/05 03:20:56;;;;;;;11.57;10.55;;;;;;;;;;5024630;28;20033;-66
2022/07/05 03:23:24;;;;;;;12.43;11.32;;;;;;;;;;5024701;28;20403;-66
2022/07/05 03:25:55;;;;;;;11.85;10.85;;;;;;;;;;5027716;28;20029;-66
2022/07/05 03:28:21;;;;;;;13.55;12.35;;;;;;;;;;5025259;28;21773;-65
2022/07/05 03:30:49;;;;;;;15.15;12.30;;;;;;;;;;5023555;28;20040;-65
2022/07/05 03:33:16;;;;;;;12.77;11.60;;;;;;;;;;5021467;28;20041;-65
2022/07/05 03:35:44;;;;;;;12.10;11.00;;;;;;;;;;5024367;28;20558;-65
2022/07/05 03:38:12;;;;;;;12.63;11.48;;;;;;;;;;5028521;28;20451;-65
2022/07/05 03:40:37;;;;;;;12.52;11.38;;;;;;;;;;5025048;28;20602;-65
2022/07/05 03:43:03;;;;;;;11.57;10.48;;;;;;;;;;5020769;28;20053;-65
2022/07/05 03:45:33;;;;;;;12.77;10.30;;;;;;;;;;5025375;28;20757;-65
2022/07/05 03:48:00;;;;;;;12.63;11.63;;;;;;;;;;5025218;28;20120;-65
2022/07/05 03:50:28;;;;;;;12.32;11.23;;;;;;;;;;5022227;28;20143;-65
2022/07/05 03:52:54;;;;;;;11.63;10.68;;;;;;;;;;5024014;28;20045;-65
2022/07/05 03:55:22;;;;;;;12.85;11.68;;;;;;;;;;5023690;28;20136;-65
2022/07/05 03:57:48;;;;;;;12.20;11.20;;;;;;;;;;5023964;28;20514;-65
2022/07/05 04:00:15;;;;;;;12.00;10.90;;;;;;;;;;5022835;28;20033;-65
2022/07/05 04:02:47;;;;;;;12.75;11.48;;;;;;;;;;5022436;28;20037;-64
2022/07/05 04:05:14;;;;;;;12.77;11.27;;;;;;;;;;5026039;28;20037;-64
2022/07/05 04:07:51;;;;;;;12.68;11.38;;;;;;;;;;5026914;28;20037;-64
2022/07/05 04:10:22;;;;;;;12.45;11.25;;;;;;;;;;5027468;28;20112;-66
2022/07/05 04:12:48;;;;;;;11.85;10.85;;;;;;;;;;5028103;28;20075;-66
2022/07/05 04:15:14;;;;;;;12.88;11.48;;;;;;;;;;5025497;28;20041;-66
2022/07/05 04:17:50;;;;;;;13.57;10.73;;;;;;;;;;5024269;28;20441;-66
2022/07/05 04:20:17;;;;;;;10.77;9.98;;;;;;;;;;5027184;28;20037;-67
2022/07/05 04:22:43;;;;;;;10.10;9.32;;;;;;;;;;5028105;28;20163;-67
2022/07/05 04:25:16;;;;;;;9.68;8.90;;;;;;;;;;5027884;28;20029;-66
2022/07/05 04:27:50;;;;;;;9.77;9.07;;;;;;;;;;5025442;28;20049;-65
2022/07/05 04:30:16;;;;;;;9.43;8.55;;;;;;;;;;5027698;28;20041;-65
2022/07/05 04:32:43;;;;;;;9.40;8.50;;;;;;;;;;5028208;28;20037;-65
2022/07/05 04:35:18;;;;;;;9.10;8.40;;;;;;;;;;5025932;28;20418;-65
2022/07/05 04:37:45;;;;;;;8.70;8.00;;;;;;;;;;5029738;28;20386;-66
2022/07/05 04:40:12;;;;;;;9.02;8.32;;;;;;;;;;5026516;28;20047;-65
2022/07/05 04:42:40;;;;;;;8.25;7.63;;;;;;;;;;5043782;28;20079;-65
2022/07/05 04:45:09;;;;;;;8.27;7.47;;;;;;;;;;5025145;28;20128;-65
2022/07/05 04:47:35;;;;;;;8.63;7.70;;;;;;;;;;5030240;28;20290;-65
2022/07/05 04:50:01;;;;;;;8.55;7.85;;;;;;;;;;5028205;28;20091;-65
2022/07/05 04:52:27;;;;;;;8.77;8.07;;;;;;;;;;5028018;28;20033;-65
2022/07/05 04:54:54;;;;;;;9.15;8.35;;;;;;;;;;5017304;28;20684;-65
2022/07/05 04:57:19;;;;;;;9.38;8.55;;;;;;;;;;5024669;28;20033;-65
2022/07/05 04:59:45;;;;;;;9.30;8.60;;;;;;;;;;5027946;28;20523;-65
2022/07/05 05:02:11;;;;;;;9.68;8.98;;;;;;;;;;5023671;28;20584;-65
2022/07/05 05:04:36;;;;;;;9.70;8.93;;;;;;;;;;5022695;28;20040;-64
2022/07/05 05:07:02;;;;;;;9.05;8.35;;;;;;;;;;5028522;28;20033;-65
2022/07/05 05:09:28;;;;;;;9.50;8.57;;;;;;;;;;5029988;28;20029;-65
2022/07/05 05:11:53;;;;;;;9.73;8.65;;;;;;;;;;5025936;28;20064;-65
2022/07/05 05:14:19;;;;;;;9.25;8.35;;;;;;;;;;5029057;28;20034;-65
2022/07/05 05:16:45;;;;;;;9.05;8.35;;;;;;;;;;5025223;28;20037;-65
2022/07/05 05:19:10;;;;;;;9.27;8.45;;;;;;;;;;5027560;28;20159;-65
2022/07/05 05:21:36;;;;;;;8.57;7.88;;;;;;;;;;5028824;28;20112;-65
2022/07/05 05:24:02;;;;;;;8.90;8.20;;;;;;;;;;5028314;28;20091;-65
2022/07/05 05:26:28;;;;;;;8.65;8.05;;;;;;;;;;5023246;28;20044;-65
2022/07/05 05:28:53;;;;;;;9.15;8.35;;;;;;;;;;5026610;28;20443;-65
2022/07/05 05:31:19;;;;;;;9.90;8.38;;;;;;;;;;5027095;28;20432;-65
2022/07/05 05:33:45;;;;;;;8.73;8.13;;;;;;;;;;5026672;28;20238;-65
2022/07/05 05:36:11;;;;;;;8.77;7.97;;;;;;;;;;5025396;28;20037;-67
2022/07/05 05:38:37;;;;;;;9.10;8.23;;;;;;;;;;5027481;28;20048;-67
2022/07/05 05:41:02;;;;;;;9.40;8.27;;;;;;;;;;5028183;28;20040;-67
2022/07/05 05:43:28;;;;;;;8.40;7.47;;;;;;;;;;5028220;28;20037;-68
2022/07/05 05:45:54;;;;;;;7.93;7.32;;;;;;;;;;5025848;28;20063;-67
2022/07/05 05:48:20;;;;;;;7.95;7.32;;;;;;;;;;5029152;28;20037;-67
2022/07/05 05:50:45;;;;;;;8.35;7.75;;;;;;;;;;5026927;28;20072;-67
2022/07/05 05:53:12;;;;;;;9.88;7.82;;;;;;;;;;5026810;28;20040;-67
2022/07/05 05:55:38;;;;;;;8.48;7.68;;;;;;;;;;5029597;28;20150;-67
2022/07/05 05:58:14;;;;;;;7.55;6.88;;;;;;;;;;5030800;28;20065;-68
2022/07/05 06:00:41;;;;;;;9.77;7.32;;;;;;;;;;5030460;28;20036;-68
2022/07/05 06:03:07;;;;;;;8.70;7.78;;;;;;;;;;5029374;28;20033;-67
2022/07/05 06:05:33;;;;;;;7.93;7.32;;;;;;;;;;5029247;28;20029;-67
2022/07/05 06:07:59;;;;;;;7.70;7.00;;;;;;;;;;5031240;28;20108;-68
2022/07/05 06:10:31;;;;;;;7.88;7.20;;;;;;;;;;5028238;28;20539;-67
2022/07/05 06:12:59;;;;;;;8.00;7.32;;;;;;;;;;5029014;28;20044;-67
2022/07/05 06:15:25;;;;;;;7.80;7.10;;;;;;;;;;5028738;28;20029;-67
2022/07/05 06:17:51;;;;;;;8.10;7.28;;;;;;;;;;5028821;28;20044;-67
2022/07/05 06:20:19;;;;;;;8.18;7.28;;;;;;;;;;5027496;28;20029;-67
2022/07/05 06:22:45;;;;;;;8.00;7.20;;;;;;;;;;5029899;28;20420;-67
2022/07/05 06:25:11;;;;;;;7.63;7.03;;;;;;;;;;5025192;28;20493;-67
2022/07/05 06:27:41;;;;;;;7.75;7.07;;;;;;;;;;5027809;28;20113;-67
2022/07/05 06:30:07;;;;;;;7.80;7.18;;;;;;;;;;5029091;28;20037;-67
2022/07/05 06:32:33;;;;;;;9.10;7.28;;;;;;;;;;5027502;28;20059;-67
2022/07/05 06:34:58;;;;;;;7.85;7.15;;;;;;;;;;5027679;28;20026;-67
2022/07/05 06:37:24;;;;;;;8.05;6.88;;;;;;;;;;5030937;28;20040;-67
2022/07/05 06:39:50;;;;;;;7.85;6.82;;;;;;;;;;5029512;28;20029;-67
2022/07/05 06:42:16;;;;;;;9.25;7.00;;;;;;;;;;5026480;28;20033;-67
2022/07/05 06:44:42;;;;;;;7.15;6.53;;;;;;;;;;5028594;28;20028;-67
2022/07/05 06:47:07;;;;;;;7.78;6.97;;;;;;;;;;5028658;28;20039;-67
2022/07/05 06:49:33;;;;;;;8.25;6.90;;;;;;;;;;5031558;28;20390;-67
2022/07/05 06:51:59;;;;;;;8.43;7.07;;;;;;;;;;5027274;28;20033;-68
2022/07/05 06:54:24;;;;;;;7.53;6.82;;;;;;;;;;5029080;28;20517;-68
2022/07/05 06:56:50;;;;;;;7.70;6.47;;;;;;;;;;5034843;28;20042;-67
2022/07/05 06:59:15;;;;;;;7.45;6.80;;;;;;;;;;5029696;28;20087;-67
2022/07/05 07:01:41;;;;;;;7.50;6.70;;;;;;;;;;5024541;28;20507;-67
2022/07/05 07:04:06;;;;;;;8.57;6.40;;;;;;;;;;5027668;28;20042;-67
2022/07/05 07:06:32;;;;;;;9.95;6.40;;;;;;;;;;5027865;28;20129;-67
2022/07/05 07:11:56;;;;;;;7.55;6.22;;;;;;;;;;4974823;28;20066;-67
2022/07/05 07:14:21;;;;;;;9.45;6.00;;;;;;;;;;4976103;28;20034;-67
2022/07/05 07:16:47;;;;;;;7.70;6.38;;;;;;;;;;4971515;28;20299;-67
2022/07/05 07:19:12;;;;;;;6.90;6.20;;;;;;;;;;4980230;28;20608;-68
2022/07/05 07:21:39;;;;;;;6.18;5.78;;;;;;;;;;4972318;28;20043;-66
2022/07/05 07:24:05;;;;;;;5.78;5.38;;;;;;;;;;4974384;28;20046;-69
2022/07/05 07:27:02;;;;;;;6.38;5.78;;;;;;;;;;4976530;28;20073;-67
2022/07/05 07:29:17;;;;;;;5.75;5.25;;;;;;;;;;4974310;28;20050;-67
2022/07/05 07:31:42;;;;;;;9.82;6.00;;;;;;;;;;4975137;28;20038;-67
2022/07/05 07:34:08;;;;;;;8.77;5.57;;;;;;;;;;4975883;28;20534;-67
2022/07/05 07:36:33;;;;;;;9.65;5.85;;;;;;;;;;4969841;28;20523;-68
2022/07/05 07:38:59;;;;;;;6.40;5.90;;;;;;;;;;4975744;28;20081;-68
2022/07/05 07:41:25;;;;;;;7.88;5.95;;;;;;;;;;4974179;28;20047;-69
2022/07/05 07:43:50;;;;;;;8.45;6.50;;;;;;;;;;4969363;28;20043;-67
2022/07/05 07:46:16;;;;;;;6.53;5.97;;;;;;;;;;4969383;28;20043;-67
2022/07/05 07:48:41;;;;;;;6.47;5.97;;;;;;;;;;5027022;28;20529;-67
2022/07/05 07:51:07;;;;;;;7.25;5.85;;;;;;;;;;5024467;28;20480;-67
2022/07/05 07:53:32;;;;;;;6.20;5.70;;;;;;;;;;5027766;28;20405;-67
2022/07/05 07:55:58;;;;;;;5.90;5.40;;;;;;;;;;5028071;28;20373;-68
2022/07/05 07:58:23;;;;;;;6.63;5.82;;;;;;;;;;5028002;28;20045;-67
2022/07/05 08:00:49;;;;;;;6.72;5.70;;;;;;;;;;5025591;28;20036;-67
2022/07/05 08:03:14;;;;;;;6.28;5.68;;;;;;;;;;5028324;28;20060;-67
2022/07/05 08:05:40;;;;;;;6.18;5.45;;;;;;;;;;5026925;28;20060;-67
2022/07/05 08:08:06;;;;;;;6.82;5.47;;;;;;;;;;5026280;28;20041;-67
2022/07/05 08:10:31;;;;;;;8.63;5.35;;;;;;;;;;5028564;28;20088;-67
2022/07/05 08:12:57;;;;;;;8.63;5.80;;;;;;;;;;5025875;28;20460;-67
2022/07/05 08:15:22;;;;;;;6.22;5.30;;;;;;;;;;5020763;28;20056;-67
2022/07/05 08:23:16;;;;;;;6.80;5.70;;;;;;;;;;5025018;28;20044;-67
2022/07/05 08:25:42;;;;;;;14.05;6.00;;;;;;;;;;5026940;28;20928;-67
2022/07/05 08:28:07;;;;;;;6.88;6.18;;;;;;;;;;5025989;28;20391;-67
2022/07/05 08:30:33;;;;;;;7.03;5.28;;;;;;;;;;5026883;28;20091;-68
2022/07/05 08:32:58;;;;;;;6.30;5.50;;;;;;;;;;5026088;28;20083;-67
2022/07/05 08:35:24;;;;;;;6.65;5.18;;;;;;;;;;5026461;28;20045;-67
2022/07/05 08:37:49;;;;;;;5.75;5.28;;;;;;;;;;5027081;28;20041;-67
2022/07/05 08:40:18;;;;;;;6.07;5.47;;;;;;;;;;5026391;28;20340;-67
2022/07/05 08:42:44;;;;;;;;;;;;;;;;;;5024117;28;20029;-67
2022/07/05 08:45:11;;;;;;;5.65;5.10;;;;;;;;;;5026629;28;19920;-67
2022/07/05 08:47:37;;;;;;;6.43;4.70;;;;;;;;;;5027135;28;20064;-67
2022/07/05 08:50:04;;;;;;;5.10;4.60;;;;;;;;;;5024914;28;20025;-67
2022/07/05 08:52:30;;;;;;;6.32;5.30;;;;;;;;;;5029898;28;20029;-67
2022/07/05 08:54:57;;;;;;;5.20;4.68;;;;;;;;;;5030350;28;20040;-67
2022/07/05 08:57:23;;;;;;;5.93;5.20;;;;;;;;;;5034187;28;20083;-67
2022/07/05 08:59:49;;;;;;;11.20;5.80;;;;;;;;;;5026380;28;20057;-68
2022/07/05 09:02:16;;;;;;;7.28;5.40;;;;;;;;;;5030384;28;20568;-67
2022/07/05 09:04:45;;;;;;;5.43;4.90;;;;;;;;;;5029548;28;20316;-68
2022/07/05 09:07:16;;;;;;;8.10;4.93;;;;;;;;;;5028586;28;20037;-67
2022/07/05 09:09:45;;;;;;;5.30;4.82;;;;;;;;;;5029856;28;20037;-66
2022/07/05 09:12:12;;;;;;;5.00;4.60;;;;;;;;;;5029383;28;20033;-68
2022/07/05 09:14:38;;;;;;;5.10;4.70;;;;;;;;;;5025707;28;20362;-68
2022/07/05 09:17:04;;;;;;;5.25;4.78;;;;;;;;;;5028299;28;20029;-68
2022/07/05 09:19:31;;;;;;;5.70;5.05;;;;;;;;;;5029691;28;20057;-67
2022/07/05 09:22:05;;;;;;;5.57;4.97;;;;;;;;;;5031333;28;20049;-68
2022/07/05 09:24:33;;;;;;;4.78;4.47;;;;;;;;;;5027093;28;20033;-67
2022/07/05 09:27:04;;;;;;;5.13;4.72;;;;;;;;;;5030017;28;20040;-67
2022/07/05 09:29:30;;;;;;;7.38;4.80;;;;;;;;;;5034469;28;20069;-68
2022/07/05 09:31:56;;;;;;;4.85;4.55;;;;;;;;;;5028736;28;20039;-68
2022/07/05 09:34:22;;;;;;;4.93;4.53;;;;;;;;;;5027172;28;20038;-67
2022/07/05 09:36:54;;;;;;;5.13;4.60;;;;;;;;;;5029804;28;20029;-67
2022/07/05 09:39:28;;;;;;;5.00;4.60;;;;;;;;;;5027570;28;20038;-68
2022/07/05 09:42:19;;;;;;;4.90;4.50;;;;;;;;;;5029262;28;20037;-68
2022/07/05 09:44:55;;;;;;;6.45;4.65;;;;;;;;;;5030080;28;20080;-68
2022/07/05 09:47:23;;;;;;;5.07;4.68;;;;;;;;;;5021758;28;20037;-67
2022/07/05 09:49:56;;;;;;;5.43;4.50;;;;;;;;;;5026768;28;20037;-67
2022/07/05 09:52:35;;;;;;;5.40;4.47;;;;;;;;;;5028729;28;20041;-67
2022/07/05 09:55:08;;;;;;;;;;;;;;;;;;5028105;28;20136;-68
2022/07/05 09:57:36;;;;;;;4.93;4.63;;;;;;;;;;5024917;28;19913;-67
2022/07/05 10:00:19;;;;;;;7.40;4.93;;;;;;;;;;5026885;28;20042;-68
2022/07/05 10:02:47;;;;;;;5.43;4.68;;;;;;;;;;5025319;28;20040;-67
2022/07/05 10:05:21;;;;;;;8.75;4.32;;;;;;;;;;5022455;28;20026;-67
2022/07/05 10:07:51;;;;;;;4.82;4.47;;;;;;;;;;5032177;28;20045;-67
2022/07/05 10:10:22;;;;;;;5.40;4.90;;;;;;;;;;5028559;28;20451;-68
2022/07/05 10:12:50;;;;;;;8.90;4.60;;;;;;;;;;5037336;28;20033;-66
2022/07/05 10:15:18;;;;;;;5.20;4.63;;;;;;;;;;5027910;28;20390;-68
2022/07/05 10:17:50;;;;;;;;;;;;;;;;;;5030260;28;20033;-67
2022/07/05 10:20:29;;;;;;;4.72;4.32;;;;;;;;;;5029856;28;19983;-67
2022/07/05 10:22:56;;;;;;;7.20;4.68;;;;;;;;;;5026895;28;20037;-67
2022/07/05 10:25:23;;;;;;;7.10;4.80;;;;;;;;;;5027424;28;20490;-67
2022/07/05 10:27:53;;;;;;;5.00;4.60;;;;;;;;;;5025785;28;20366;-67
2022/07/05 10:30:20;;;;;;;5.05;4.63;;;;;;;;;;5022096;28;20635;-67
2022/07/05 10:32:48;;;;;;;4.88;4.47;;;;;;;;;;5027787;28;20033;-67
2022/07/05 10:35:16;;;;;;;5.20;4.38;;;;;;;;;;5025225;28;20037;-67
2022/07/05 10:37:42;;;;;;;4.90;4.50;;;;;;;;;;5026812;28;20132;-66
2022/07/05 10:40:08;;;;;;;5.50;5.00;;;;;;;;;;5025265;28;20041;-67
2022/07/05 10:42:47;;;;;;;7.25;4.30;;;;;;;;;;5029197;28;20037;-67
2022/07/05 10:45:29;;;;;;;5.63;4.65;;;;;;;;;;5028986;28;20484;-67
2022/07/05 10:48:10;;;;;;;4.97;4.68;;;;;;;;;;5022606;28;20445;-67
2022/07/05 10:50:50;;;;;;;5.15;4.55;;;;;;;;;;5026732;28;20041;-66
2022/07/05 10:53:17;;;;;;;4.60;4.30;;;;;;;;;;5024225;28;20038;-67
2022/07/05 10:56:06;;;;;;;4.60;4.20;;;;;;;;;;5022954;28;20040;-67
2022/07/05 10:58:39;;;;;;;9.07;4.60;;;;;;;;;;5021174;28;20102;-67
2022/07/05 11:01:23;;;;;;;4.70;4.30;;;;;;;;;;5026194;28;20099;-67
2022/07/05 11:04:05;;;;;;;5.05;4.65;;;;;;;;;;5024794;28;20183;-66
2022/07/05 11:06:46;;;;;;;7.38;4.30;;;;;;;;;;5027637;28;20094;-66
2022/07/05 11:09:11;;;;;;;8.45;4.40;;;;;;;;;;5028431;28;20048;-67
2022/07/05 11:11:42;;;;;;;6.00;4.82;;;;;;;;;;5026487;28;20049;-67
2022/07/05 11:14:23;;;;;;;4.70;4.40;;;;;;;;;;5025669;28;20500;-67
2022/07/05 11:17:09;;;;;;;4.70;4.40;;;;;;;;;;5025187;28;20052;-67
2022/07/05 11:19:54;;;;;;;4.90;4.50;;;;;;;;;;5027602;28;20112;-67
2022/07/05 11:22:20;;;;;;;4.18;3.97;;;;;;;;;;5024903;28;20052;-67
2022/07/05 11:24:47;;;;;;;5.03;4.68;;;;;;;;;;5023014;28;20029;-67
2022/07/05 11:27:12;;;;;;;4.60;4.30;;;;;;;;;;5025949;28;20112;-67
2022/07/05 11:29:46;;;;;;;4.97;4.43;;;;;;;;;;5025908;28;20108;-67
2022/07/05 11:32:13;;;;;;;4.45;4.20;;;;;;;;;;5021559;28;20042;-67
2022/07/05 11:34:41;;;;;;;5.00;4.60;;;;;;;;;;5021787;28;20049;-66
2022/07/05 11:37:16;;;;;;;4.63;4.32;;;;;;;;;;5017134;28;20037;-66
2022/07/05 11:39:42;;;;;;;5.03;4.50;;;;;;;;;;5023605;28;20120;-66
2022/07/05 11:42:11;;;;;;;5.63;4.55;;;;;;;;;;5020789;28;20064;-66
2022/07/05 11:44:40;;;;;;;6.07;4.95;;;;;;;;;;5023351;28;20116;-67
2022/07/05 11:47:06;;;;;;;4.97;4.68;;;;;;;;;;5016217;28;20409;-66
2022/07/05 11:49:32;;;;;;;5.95;5.00;;;;;;;;;;5023246;28;21201;-66
2022/07/05 11:52:02;;;;;;;7.22;5.03;;;;;;;;;;5022204;28;20402;-66
2022/07/05 11:54:30;;;;;;;4.75;4.45;;;;;;;;;;5019369;28;20034;-65
2022/07/05 11:56:56;;;;;;;5.72;4.70;;;;;;;;;;5007335;28;20040;-66
2022/07/05 11:59:24;;;;;;;4.97;4.68;;;;;;;;;;5026690;28;20417;-66
2022/07/05 12:01:51;;;;;;;4.88;4.40;;;;;;;;;;5025566;28;20048;-66
2022/07/05 12:04:23;;;;;;;5.18;4.68;;;;;;;;;;5017616;28;20079;-66
2022/07/05 12:06:49;;;;;;;4.95;4.55;;;;;;;;;;5023252;28;20049;-66
2022/07/05 12:09:21;;;;;;;4.70;4.40;;;;;;;;;;5026655;28;20167;-65
2022/07/05 12:14:49;;;;;;;5.38;4.88;;;;;;;;;;5018983;28;20045;-67
2022/07/05 12:17:18;;;;;;;5.72;5.25;;;;;;;;;;5023608;28;20042;-66
2022/07/05 12:19:45;;;;;;;5.03;4.60;;;;;;;;;;5023991;28;20488;-65
2022/07/05 12:22:11;;;;;;;5.20;4.80;;;;;;;;;;5023820;28;20030;-66
2022/07/05 12:24:36;;;;;;;5.10;4.60;;;;;;;;;;5025771;28;20041;-66
2022/07/05 12:27:03;;;;;;;5.50;5.10;;;;;;;;;;5029021;28;20040;-67
2022/07/05 12:29:28;;;;;;;5.65;5.03;;;;;;;;;;5029231;28;20033;-67
2022/07/05 12:31:59;;;;;;;5.13;4.80;;;;;;;;;;5022627;28;20061;-67
2022/07/05 12:34:24;;;;;;;5.10;4.60;;;;;;;;;;5030581;28;20140;-66
2022/07/05 12:36:50;;;;;;;5.35;4.90;;;;;;;;;;5025733;28;20081;-67
2022/07/05 12:39:19;;;;;;;5.35;4.95;;;;;;;;;;5027920;28;20045;-66
2022/07/05 12:41:44;;;;;;;5.30;4.90;;;;;;;;;;5028839;28;20083;-66
2022/07/05 12:44:10;;;;;;;5.38;4.90;;;;;;;;;;5027482;28;20707;-66
2022/07/05 12:46:37;;;;;;;4.90;4.53;;;;;;;;;;5024659;28;20076;-66
2022/07/05 12:49:03;;;;;;;5.35;5.00;;;;;;;;;;5029867;28;20048;-66
2022/07/05 12:51:37;;;;;;;4.95;4.55;;;;;;;;;;5024271;28;20087;-66
2022/07/05 12:59:36;;;;;;;5.40;5.00;;;;;;;;;;5027921;28;20933;-66
2022/07/05 13:02:03;;;;;;;5.25;4.75;;;;;;;;;;5028350;28;20040;-66
2022/07/05 13:04:29;;;;;;;5.53;4.95;;;;;;;;;;5032219;28;20135;-67
2022/07/05 13:07:00;;;;;;;5.57;5.07;;;;;;;;;;5028777;28;20575;-67
2022/07/05 13:09:29;;;;;;;5.70;5.20;;;;;;;;;;5029786;28;20040;-66
2022/07/05 13:12:08;;;;;;;5.60;5.20;;;;;;;;;;5029596;28;20060;-66
2022/07/05 13:14:34;;;;;;;5.90;5.45;;;;;;;;;;5022515;28;20087;-66
2022/07/05 13:17:00;;;;;;;5.85;4.93;;;;;;;;;;5025372;28;20045;-66
2022/07/05 13:19:26;;;;;;;5.78;5.28;;;;;;;;;;5023596;28;20545;-66
2022/07/05 13:21:51;;;;;;;5.38;4.88;;;;;;;;;;5028598;28;20404;-66
2022/07/05 13:24:17;;;;;;;9.60;5.05;;;;;;;;;;5026029;28;20036;-65
2022/07/05 13:26:42;;;;;;;5.18;4.78;;;;;;;;;;5018256;28;20037;-66
2022/07/05 13:29:08;;;;;;;6.95;4.93;;;;;;;;;;5024266;28;20037;-66
2022/07/05 13:31:34;;;;;;;6.07;5.32;;;;;;;;;;5025225;28;20063;-66
2022/07/05 13:33:59;;;;;;;6.68;5.53;;;;;;;;;;5026857;28;20037;-65
2022/07/05 13:36:27;;;;;;;5.32;4.95;;;;;;;;;;5024743;28;20425;-66
2022/07/05 13:38:53;;;;;;;5.72;5.13;;;;;;;;;;5026819;28;20037;-66
2022/07/05 13:41:18;;;;;;;7.07;5.55;;;;;;;;;;5025925;28;20105;-66
2022/07/05 13:43:44;;;;;;;6.82;5.90;;;;;;;;;;5021788;28;20052;-66
2022/07/05 13:46:11;;;;;;;6.18;5.75;;;;;;;;;;5023121;28;20087;-68
2022/07/05 13:48:37;;;;;;;5.55;4.97;;;;;;;;;;5025142;28;20526;-66
2022/07/05 13:51:03;;;;;;;5.55;5.15;;;;;;;;;;5024992;28;20039;-65
2022/07/05 13:53:28;;;;;;;6.40;5.18;;;;;;;;;;5025850;28;20029;-68
2022/07/05 13:55:54;;;;;;;7.65;5.28;;;;;;;;;;5026944;28;20051;-67
2022/07/05 13:58:19;;;;;;;5.70;5.40;;;;;;;;;;5026765;28;20098;-67
2022/07/05 14:00:45;;;;;;;5.68;5.22;;;;;;;;;;5025554;28;20072;-65
2022/07/05 14:03:11;;;;;;;5.72;5.35;;;;;;;;;;5027512;28;20386;-65
2022/07/05 14:05:36;;;;;;;5.88;5.38;;;;;;;;;;5027088;28;20033;-65
2022/07/05 14:08:02;;;;;;;6.20;5.50;;;;;;;;;;5024264;28;20082;-65
2022/07/05 14:10:28;;;;;;;7.03;5.95;;;;;;;;;;5024483;28;20029;-65
2022/07/05 14:12:54;;;;;;;6.88;5.78;;;;;;;;;;5024198;28;20060;-66
2022/07/05 14:15:19;;;;;;;5.90;5.50;;;;;;;;;;5026613;28;20125;-66
2022/07/05 14:17:45;;;;;;;5.95;5.50;;;;;;;;;;5031483;28;20083;-67
2022/07/05 14:20:11;;;;;;;5.85;5.47;;;;;;;;;;5026889;28;20037;-66
2022/07/05 14:22:36;;;;;;;6.18;5.72;;;;;;;;;;5026558;28;20025;-66
2022/07/05 14:25:02;;;;;;;6.40;5.88;;;;;;;;;;5026166;28;20032;-66
2022/07/05 14:27:28;;;;;;;6.50;5.43;;;;;;;;;;5025709;28;20045;-66
2022/07/05 14:29:53;;;;;;;5.70;5.30;;;;;;;;;;5026652;28;20037;-66
2022/07/05 14:32:19;;;;;;;5.97;5.47;;;;;;;;;;5028600;28;20057;-65
2022/07/05 14:34:44;;;;;;;6.15;5.65;;;;;;;;;;5024064;28;20030;-66
2022/07/05 14:37:10;;;;;;;5.80;5.40;;;;;;;;;;5028441;28;20037;-66
2022/07/05 14:39:36;;;;;;;5.95;5.45;;;;;;;;;;5025016;28;20070;-66
2022/07/05 14:42:02;;;;;;;5.72;5.32;;;;;;;;;;5025999;28;20041;-66
2022/07/05 14:44:28;;;;;;;6.85;5.43;;;;;;;;;;5025692;28;20076;-65
2022/07/05 14:46:54;;;;;;;5.50;5.18;;;;;;;;;;5027428;28;20061;-65
2022/07/05 14:49:19;;;;;;;7.03;5.13;;;;;;;;;;5023293;28;20080;-66
2022/07/05 14:51:45;;;;;;;6.45;5.93;;;;;;;;;;5027172;28;20037;-66
2022/07/05 14:54:10;;;;;;;5.93;5.53;;;;;;;;;;5023129;28;20436;-67
2022/07/05 14:56:36;;;;;;;6.35;5.80;;;;;;;;;;5022417;28;20059;-67
2022/07/05 14:59:02;;;;;;;5.95;5.18;;;;;;;;;;5023379;28;20037;-67